Time;durP1;ratioP1;P1;durP2;ratioP2;P2;SDS_P1;SDS_P2;PMS_P1;PMS_P2;Temp;Humidity;BMP_temperature;BMP_pressure;BME280_temperature;BME280_humidity;BME280_pressure;Samples;Min_cycle;Max_cycle;Signal;HPM_P1;HPM_P2
2024/02/20 00:01:02;;;;;;;;;;;;;;;-128.00;-1.00;-1.00;106280;1257;1002210;-63
2024/02/20 00:03:29;;;;;;;;;;;;;;;-128.00;-1.00;-1.00;106411;1256;1002946;-64
2024/02/20 00:05:57;;;;;;;;;;;;;;;-128.00;-1.00;-1.00;106363;1254;1002609;-65
2024/02/20 00:08:24;;;;;;;;;;;;;;;-128.00;-1.00;-1.00;106636;1254;1002296;-63
2024/02/20 00:10:52;;;;;;;;;;;;;;;-128.00;-1.00;-1.00;106568;1254;1003008;-65
2024/02/20 00:13:21;;;;;;;;;;;;;;;-128.00;-1.00;-1.00;106625;1255;1002359;-64
2024/02/20 00:15:48;;;;;;;;;;;;;;;-128.00;-1.00;-1.00;106604;1254;1012963;-64
2024/02/20 00:18:16;;;;;;;;;;;;;;;-128.00;-1.00;-1.00;106605;1257;1002239;-65
2024/02/20 00:20:44;;;;;;;;;;;;;;;-128.00;-1.00;-1.00;106683;1253;1002287;-66
2024/02/20 00:23:14;;;;;;;;;;;;;;;-128.00;-1.00;-1.00;106902;1254;1002244;-64
2024/02/20 00:25:45;;;;;;;;;;;;;;;-128.00;-1.00;-1.00;106910;1254;1013971;-62
2024/02/20 00:28:13;;;;;;;;;;;;;;;-128.00;-1.00;-1.00;106916;1253;1012981;-65
2024/02/20 00:30:41;;;;;;;;;;;;;;;-128.00;-1.00;-1.00;106926;1254;1002243;-65
2024/02/20 00:33:08;;;;;;;;;;;;;;;-128.00;-1.00;-1.00;106882;1253;1002716;-65
2024/02/20 00:35:36;;;;;;;;;;;;;;;-128.00;-1.00;-1.00;106906;1254;1003029;-65
2024/02/20 00:38:04;;;;;;;;;;;;;;;-128.00;-1.00;-1.00;106885;1254;1002343;-65
2024/02/20 00:40:31;;;;;;;;;;;;;;;-128.00;-1.00;-1.00;106523;1261;1002387;-65
2024/02/20 00:42:59;;;;;;;;;;;;;;;-128.00;-1.00;-1.00;106556;1254;1002608;-61
2024/02/20 00:45:27;;;;;;;;;;;;;;;-128.00;-1.00;-1.00;106926;1257;1002625;-65
2024/02/20 00:47:55;;;;;;;;;;;;;;;-128.00;-1.00;-1.00;106890;1254;1011249;-64
2024/02/20 00:50:22;;;;;;;;;;;;;;;-128.00;-1.00;-1.00;106595;1253;1002189;-66
2024/02/20 00:52:50;;;;;;;;;;;;;;;-128.00;-1.00;-1.00;106483;1254;1002532;-62
2024/02/20 00:55:17;;;;;;;;;;;;;;;-128.00;-1.00;-1.00;106981;1254;1002162;-65
2024/02/20 00:57:45;;;;;;;;;;;;;;;-128.00;-1.00;-1.00;106937;1253;1002373;-66
2024/02/20 01:00:13;;;;;;;;;;;;;;;-128.00;-1.00;-1.00;106980;1253;1002282;-65
2024/02/20 01:02:42;;;;;;;;;;;;;;;-128.00;-1.00;-1.00;106929;1254;1013280;-65
2024/02/20 01:05:09;;;;;;;;;;;;;;;-128.00;-1.00;-1.00;106819;1255;1002768;-66
2024/02/20 01:07:37;;;;;;;;;;;;;;;-128.00;-1.00;-1.00;106968;1254;1012194;-66
2024/02/20 01:10:05;;;;;;;;;;;;;;;-128.00;-1.00;-1.00;106995;1253;1002400;-63
2024/02/20 01:12:33;;;;;;;;;;;;;;;-128.00;-1.00;-1.00;106913;1254;1002926;-65
2024/02/20 01:15:00;;;;;;;;;;;;;;;-128.00;-1.00;-1.00;106985;1253;1002116;-67
2024/02/20 01:17:28;;;;;;;;;;;;;;;-128.00;-1.00;-1.00;106596;1260;1002413;-65
2024/02/20 01:19:55;;;;;;;;;;;;;;;-128.00;-1.00;-1.00;106934;1254;1002216;-65
2024/02/20 01:22:23;;;;;;;;;;;;;;;-128.00;-1.00;-1.00;106971;1254;1002604;-64
2024/02/20 01:24:51;;;;;;;;;;;;;;;-128.00;-1.00;-1.00;106909;1254;1001897;-66
2024/02/20 01:27:18;;;;;;;;;;;;;;;-128.00;-1.00;-1.00;106973;1254;1002664;-65
2024/02/20 01:29:46;;;;;;;;;;;;;;;-128.00;-1.00;-1.00;106867;1254;1002470;-66
2024/02/20 01:32:13;;;;;;;;;;;;;;;-128.00;-1.00;-1.00;106765;1254;1002744;-65
2024/02/20 01:34:41;;;;;;;;;;;;;;;-128.00;-1.00;-1.00;106617;1254;1002566;-63
2024/02/20 01:37:08;;;;;;;;;;;;;;;-128.00;-1.00;-1.00;106655;1254;1002610;-66
2024/02/20 01:39:36;;;;;;;;;;;;;;;-128.00;-1.00;-1.00;106600;1254;1002336;-62
2024/02/20 01:42:03;;;;;;;;;;;;;;;-128.00;-1.00;-1.00;106578;1255;1002711;-64
2024/02/20 01:44:31;;;;;;;;;;;;;;;-128.00;-1.00;-1.00;106466;1254;1002691;-63
2024/02/20 01:46:59;;;;;;;;;;;;;;;-128.00;-1.00;-1.00;106445;1254;1010416;-62
2024/02/20 01:49:27;;;;;;;;;;;;;;;-128.00;-1.00;-1.00;106605;1254;1002323;-65
2024/02/20 01:51:55;;;;;;;;;;;;;;;-128.00;-1.00;-1.00;106605;1254;1002308;-66
2024/02/20 01:54:22;;;;;;;;;;;;;;;-128.00;-1.00;-1.00;106588;1260;1002290;-65
2024/02/20 01:56:50;;;;;;;;;;;;;;;-128.00;-1.00;-1.00;106625;1254;1002520;-63
2024/02/20 01:59:17;;;;;;;;;;;;;;;-128.00;-1.00;-1.00;106430;1254;1003049;-63
2024/02/20 02:01:45;;;;;;;;;;;;;;;-128.00;-1.00;-1.00;106485;1254;1003617;-62
2024/02/20 02:04:12;;;;;;;;;;;;;;;-128.00;-1.00;-1.00;106895;1254;1002133;-65
2024/02/20 02:06:41;;;;;;;;;;;;;;;-128.00;-1.00;-1.00;106735;1254;1002653;-63
2024/02/20 02:09:09;;;;;;;;;;;;;;;-128.00;-1.00;-1.00;106797;1253;1012879;-63
2024/02/20 02:11:39;;;;;;;;;;;;;;;-128.00;-1.00;-1.00;106798;1254;1002491;-62
2024/02/20 02:14:07;;;;;;;;;;;;;;;-128.00;-1.00;-1.00;106762;1254;1010600;-62
2024/02/20 02:16:34;;;;;;;;;;;;;;;-128.00;-1.00;-1.00;106796;1253;1002309;-65
2024/02/20 02:19:03;;;;;;;;;;;;;;;-128.00;-1.00;-1.00;106471;1260;1002254;-64
2024/02/20 02:21:31;;;;;;;;;;;;;;;-128.00;-1.00;-1.00;106697;1254;1013068;-63
2024/02/20 02:23:58;;;;;;;;;;;;;;;-128.00;-1.00;-1.00;106680;1254;1002218;-64
2024/02/20 02:26:26;;;;;;;;;;;;;;;-128.00;-1.00;-1.00;106759;1254;1002589;-65
2024/02/20 02:28:53;;;;;;;;;;;;;;;-128.00;-1.00;-1.00;106713;1254;1002040;-64
2024/02/20 02:31:21;;;;;;;;;;;;;;;-128.00;-1.00;-1.00;106621;1256;1002778;-62
2024/02/20 02:33:48;;;;;;;;;;;;;;;-128.00;-1.00;-1.00;106619;1254;1002218;-64
2024/02/20 02:36:16;;;;;;;;;;;;;;;-128.00;-1.00;-1.00;106662;1254;1002643;-62
2024/02/20 02:38:43;;;;;;;;;;;;;;;-128.00;-1.00;-1.00;106694;1257;1002283;-62
2024/02/20 02:41:14;;;;;;;;;;;;;;;-128.00;-1.00;-1.00;106683;1254;1003043;-62
2024/02/20 02:43:41;;;;;;;;;;;;;;;-128.00;-1.00;-1.00;106673;1254;1012925;-64
2024/02/20 02:46:12;;;;;;;;;;;;;;;-128.00;-1.00;-1.00;106675;1254;1002424;-65
2024/02/20 02:48:40;;;;;;;;;;;;;;;-128.00;-1.00;-1.00;106448;1254;1009423;-65
2024/02/20 02:51:08;;;;;;;;;;;;;;;-128.00;-1.00;-1.00;106662;1254;1002594;-65
2024/02/20 02:53:36;;;;;;;;;;;;;;;-128.00;-1.00;-1.00;106718;1254;1012907;-65
2024/02/20 02:56:07;;;;;;;;;;;;;;;-128.00;-1.00;-1.00;106803;1254;1002060;-65
2024/02/20 02:58:34;;;;;;;;;;;;;;;-128.00;-1.00;-1.00;106797;1253;1013165;-65
2024/02/20 03:01:03;;;;;;;;;;;;;;;-128.00;-1.00;-1.00;106632;1254;1002194;-66
2024/02/20 03:03:30;;;;;;;;;;;;;;;-128.00;-1.00;-1.00;106496;1254;1002454;-62
2024/02/20 03:05:58;;;;;;;;;;;;;;;-128.00;-1.00;-1.00;106773;1254;1002422;-64
2024/02/20 03:08:26;;;;;;;;;;;;;;;-128.00;-1.00;-1.00;106777;1253;1002549;-65
2024/02/20 03:10:54;;;;;;;;;;;;;;;-128.00;-1.00;-1.00;106774;1254;1012643;-64
2024/02/20 03:13:22;;;;;;;;;;;;;;;-128.00;-1.00;-1.00;106702;1254;1002510;-64
2024/02/20 03:15:49;;;;;;;;;;;;;;;-128.00;-1.00;-1.00;106744;1254;1002357;-65
2024/02/20 03:18:17;;;;;;;;;;;;;;;-128.00;-1.00;-1.00;106782;1254;1002352;-64
2024/02/20 03:20:44;;;;;;;;;;;;;;;-128.00;-1.00;-1.00;106784;1257;1002739;-65
2024/02/20 03:23:12;;;;;;;;;;;;;;;-128.00;-1.00;-1.00;106847;1253;1002440;-65
2024/02/20 03:25:39;;;;;;;;;;;;;;;-128.00;-1.00;-1.00;106814;1254;1002374;-66
2024/02/20 03:28:07;;;;;;;;;;;;;;;-128.00;-1.00;-1.00;106840;1254;1002837;-64
2024/02/20 03:30:34;;;;;;;;;;;;;;;-128.00;-1.00;-1.00;106905;1253;1001914;-65
2024/02/20 03:33:02;;;;;;;;;;;;;;;-128.00;-1.00;-1.00;106641;1254;1002302;-65
2024/02/20 03:35:30;;;;;;;;;;;;;;;-128.00;-1.00;-1.00;106590;1254;1002342;-65
2024/02/20 03:37:58;;;;;;;;;;;;;;;-128.00;-1.00;-1.00;106820;1253;1002419;-65
2024/02/20 03:40:26;;;;;;;;;;;;;;;-128.00;-1.00;-1.00;106829;1252;1002392;-65
2024/02/20 03:42:54;;;;;;;;;;;;;;;-128.00;-1.00;-1.00;106885;1253;1012685;-64
2024/02/20 03:45:21;;;;;;;;;;;;;;;-128.00;-1.00;-1.00;106805;1257;1001952;-65
2024/02/20 03:47:49;;;;;;;;;;;;;;;-128.00;-1.00;-1.00;106867;1252;1002175;-61
2024/02/20 03:50:16;;;;;;;;;;;;;;;-128.00;-1.00;-1.00;106884;1252;1002553;-65
2024/02/20 03:52:44;;;;;;;;;;;;;;;-128.00;-1.00;-1.00;106853;1253;1002230;-65
2024/02/20 03:55:11;;;;;;;;;;;;;;;-128.00;-1.00;-1.00;106865;1252;1001981;-63
2024/02/20 03:57:40;;;;;;;;;;;;;;;-128.00;-1.00;-1.00;106657;1253;1002195;-64
2024/02/20 04:00:14;;;;;;;;;;;;;;;-128.00;-1.00;-1.00;106837;1253;1002182;-65
2024/02/20 04:02:43;;;;;;;;;;;;;;;-128.00;-1.00;-1.00;106858;1252;1011502;-65
2024/02/20 04:05:13;;;;;;;;;;;;;;;-128.00;-1.00;-1.00;106826;1253;1002680;-64
2024/02/20 04:07:46;;;;;;;;;;;;;;;-128.00;-1.00;-1.00;106888;1253;1012618;-65
2024/02/20 04:10:14;;;;;;;;;;;;;;;-128.00;-1.00;-1.00;106658;1253;1012331;-65
2024/02/20 04:12:42;;;;;;;;;;;;;;;-128.00;-1.00;-1.00;106597;1252;1002510;-61
2024/02/20 04:15:12;;;;;;;;;;;;;;;-128.00;-1.00;-1.00;106822;1252;1002274;-64
2024/02/20 04:17:40;;;;;;;;;;;;;;;-128.00;-1.00;-1.00;106645;1253;1010703;-63
2024/02/20 04:20:09;;;;;;;;;;;;;;;-128.00;-1.00;-1.00;106838;1254;1002735;-64
2024/02/20 04:22:39;;;;;;;;;;;;;;;-128.00;-1.00;-1.00;106556;1257;1012661;-65
2024/02/20 04:25:07;;;;;;;;;;;;;;;-128.00;-1.00;-1.00;106705;1257;1012531;-61
2024/02/20 04:27:35;;;;;;;;;;;;;;;-128.00;-1.00;-1.00;106905;1253;1002555;-61
2024/02/20 04:30:04;;;;;;;;;;;;;;;-128.00;-1.00;-1.00;106852;1253;1002420;-66
2024/02/20 04:32:31;;;;;;;;;;;;;;;-128.00;-1.00;-1.00;106855;1253;1013111;-64
2024/02/20 04:34:59;;;;;;;;;;;;;;;-128.00;-1.00;-1.00;106839;1253;1001993;-65
2024/02/20 04:37:27;;;;;;;;;;;;;;;-128.00;-1.00;-1.00;106846;1252;1002178;-65
2024/02/20 04:39:55;;;;;;;;;;;;;;;-128.00;-1.00;-1.00;106837;1253;1010880;-65
2024/02/20 04:42:23;;;;;;;;;;;;;;;-128.00;-1.00;-1.00;106512;1253;1002447;-62
2024/02/20 04:44:51;;;;;;;;;;;;;;;-128.00;-1.00;-1.00;106625;1254;1012259;-64
2024/02/20 04:47:18;;;;;;;;;;;;;;;-128.00;-1.00;-1.00;106853;1253;1002191;-64
2024/02/20 04:49:50;;;;;;;;;;;;;;;-128.00;-1.00;-1.00;106851;1253;1012488;-63
2024/02/20 04:52:18;;;;;;;;;;;;;;;-128.00;-1.00;-1.00;106835;1252;1009960;-65
2024/02/20 04:54:45;;;;;;;;;;;;;;;-128.00;-1.00;-1.00;106822;1253;1002304;-66
2024/02/20 04:57:13;;;;;;;;;;;;;;;-128.00;-1.00;-1.00;106711;1252;1002220;-65
2024/02/20 04:59:41;;;;;;;;;;;;;;;-128.00;-1.00;-1.00;106530;1253;1002189;-64
2024/02/20 05:02:13;;;;;;;;;;;;;;;-128.00;-1.00;-1.00;106756;1253;1012846;-65
2024/02/20 05:04:41;;;;;;;;;;;;;;;-128.00;-1.00;-1.00;106777;1254;1002419;-65
2024/02/20 05:07:09;;;;;;;;;;;;;;;-128.00;-1.00;-1.00;106786;1253;1002837;-65
2024/02/20 05:09:37;;;;;;;;;;;;;;;-128.00;-1.00;-1.00;106809;1253;1013365;-65
2024/02/20 05:12:05;;;;;;;;;;;;;;;-128.00;-1.00;-1.00;106716;1254;1002290;-65
2024/02/20 05:14:32;;;;;;;;;;;;;;;-128.00;-1.00;-1.00;106733;1253;1002461;-65
2024/02/20 05:17:00;;;;;;;;;;;;;;;-128.00;-1.00;-1.00;106794;1253;1002342;-64
2024/02/20 05:19:27;;;;;;;;;;;;;;;-128.00;-1.00;-1.00;106766;1253;1002112;-66
2024/02/20 05:21:55;;;;;;;;;;;;;;;-128.00;-1.00;-1.00;106646;1253;1004786;-65
2024/02/20 05:24:23;;;;;;;;;;;;;;;-128.00;-1.00;-1.00;106766;1254;1002802;-65
2024/02/20 05:26:50;;;;;;;;;;;;;;;-128.00;-1.00;-1.00;106717;1254;1002591;-65
2024/02/20 05:29:18;;;;;;;;;;;;;;;-128.00;-1.00;-1.00;106736;1253;1001835;-67
2024/02/20 05:31:46;;;;;;;;;;;;;;;-128.00;-1.00;-1.00;106745;1253;1010552;-66
2024/02/20 05:34:14;;;;;;;;;;;;;;;-128.00;-1.00;-1.00;106810;1253;1002548;-65
2024/02/20 05:36:41;;;;;;;;;;;;;;;-128.00;-1.00;-1.00;106721;1253;1002456;-67
2024/02/20 05:39:10;;;;;;;;;;;;;;;-128.00;-1.00;-1.00;106509;1252;1002303;-65
2024/02/20 05:41:37;;;;;;;;;;;;;;;-128.00;-1.00;-1.00;106756;1253;1010327;-66
2024/02/20 05:44:05;;;;;;;;;;;;;;;-128.00;-1.00;-1.00;106763;1252;1002417;-67
2024/02/20 05:46:33;;;;;;;;;;;;;;;-128.00;-1.00;-1.00;106744;1253;1003074;-66
2024/02/20 05:49:03;;;;;;;;;;;;;;;-128.00;-1.00;-1.00;106710;1254;1012639;-65
2024/02/20 05:51:32;;;;;;;;;;;;;;;-128.00;-1.00;-1.00;106732;1253;1013448;-67
2024/02/20 05:53:59;;;;;;;;;;;;;;;-128.00;-1.00;-1.00;106797;1252;1002591;-68
2024/02/20 05:56:27;;;;;;;;;;;;;;;-128.00;-1.00;-1.00;106875;1252;1002909;-67
2024/02/20 05:58:54;;;;;;;;;;;;;;;-128.00;-1.00;-1.00;106871;1252;1002447;-68
2024/02/20 06:01:22;;;;;;;;;;;;;;;-128.00;-1.00;-1.00;106897;1253;1001780;-66
2024/02/20 06:03:49;;;;;;;;;;;;;;;-128.00;-1.00;-1.00;106847;1253;1002409;-69
2024/02/20 06:06:17;;;;;;;;;;;;;;;-128.00;-1.00;-1.00;106909;1252;1002115;-62
2024/02/20 06:08:44;;;;;;;;;;;;;;;-128.00;-1.00;-1.00;106877;1253;1002322;-65
2024/02/20 06:11:12;;;;;;;;;;;;;;;-128.00;-1.00;-1.00;106761;1252;1002851;-66
2024/02/20 06:13:40;;;;;;;;;;;;;;;-128.00;-1.00;-1.00;106847;1253;1003140;-67
2024/02/20 06:16:08;;;;;;;;;;;;;;;-128.00;-1.00;-1.00;106892;1253;1002511;-67
2024/02/20 06:18:37;;;;;;;;;;;;;;;-128.00;-1.00;-1.00;106911;1252;1003536;-66
2024/02/20 06:21:08;;;;;;;;;;;;;;;-128.00;-1.00;-1.00;106902;1253;1011117;-67
2024/02/20 06:23:39;;;;;;;;;;;;;;;-128.00;-1.00;-1.00;106945;1252;1013146;-65
2024/02/20 06:26:06;;;;;;;;;;;;;;;-128.00;-1.00;-1.00;106829;1254;1012410;-66
2024/02/20 06:28:37;;;;;;;;;;;;;;;-128.00;-1.00;-1.00;106665;1254;1012913;-66
2024/02/20 06:31:06;;;;;;;;;;;;;;;-128.00;-1.00;-1.00;106786;1253;1002740;-67
2024/02/20 06:33:34;;;;;;;;;;;;;;;-128.00;-1.00;-1.00;106698;1254;1011370;-67
2024/02/20 06:36:05;;;;;;;;;;;;;;;-128.00;-1.00;-1.00;106665;1254;1002250;-67
2024/02/20 06:38:33;;;;;;;;;;;;;;;-128.00;-1.00;-1.00;106431;1254;1012896;-65
2024/02/20 06:41:00;;;;;;;;;;;;;;;-128.00;-1.00;-1.00;106612;1254;1002729;-67
2024/02/20 06:43:28;;;;;;;;;;;;;;;-128.00;-1.00;-1.00;106455;1254;1002618;-66
2024/02/20 06:45:56;;;;;;;;;;;;;;;-128.00;-1.00;-1.00;106659;1254;1002509;-65
2024/02/20 06:48:24;;;;;;;;;;;;;;;-128.00;-1.00;-1.00;106434;1254;1002868;-64
2024/02/20 06:50:51;;;;;;;;;;;;;;;-128.00;-1.00;-1.00;106610;1254;1002710;-66
2024/02/20 06:53:19;;;;;;;;;;;;;;;-128.00;-1.00;-1.00;106661;1254;1002829;-65
2024/02/20 06:55:47;;;;;;;;;;;;;;;-128.00;-1.00;-1.00;106454;1254;1002738;-65
2024/02/20 06:58:14;;;;;;;;;;;;;;;-128.00;-1.00;-1.00;106612;1254;1002250;-65
2024/02/20 07:00:42;;;;;;;;;;;;;;;-128.00;-1.00;-1.00;106662;1254;1002466;-65
2024/02/20 07:03:10;;;;;;;;;;;;;;;-128.00;-1.00;-1.00;106451;1256;1002011;-65
2024/02/20 07:05:38;;;;;;;;;;;;;;;-128.00;-1.00;-1.00;106692;1254;1013028;-65
2024/02/20 07:08:07;;;;;;;;;;;;;;;-128.00;-1.00;-1.00;106599;1254;1011662;-63
2024/02/20 07:10:34;;;;;;;;;;;;;;;-128.00;-1.00;-1.00;106471;1254;1002193;-66
2024/02/20 07:13:02;;;;;;;;;;;;;;;-128.00;-1.00;-1.00;106604;1254;1002113;-65
2024/02/20 07:15:30;;;;;;;;;;;;;;;-128.00;-1.00;-1.00;106619;1256;1013208;-65
2024/02/20 07:17:57;;;;;;;;;;;;;;;-128.00;-1.00;-1.00;106650;1254;1002425;-65
2024/02/20 07:20:25;;;;;;;;;;;;;;;-128.00;-1.00;-1.00;106497;1255;1002506;-64
2024/02/20 07:22:53;;;;;;;;;;;;;;;-128.00;-1.00;-1.00;106335;1260;1002718;-62
2024/02/20 07:25:22;;;;;;;;;;;;;;;-128.00;-1.00;-1.00;106518;1256;1002237;-63
2024/02/20 07:27:49;;;;;;;;;;;;;;;-128.00;-1.00;-1.00;106397;1257;1012184;-65
2024/02/20 07:30:17;;;;;;;;;;;;;;;-128.00;-1.00;-1.00;106310;1257;1002467;-62
2024/02/20 07:32:44;;;;;;;;;;;;;;;-128.00;-1.00;-1.00;106407;1257;1002517;-64
2024/02/20 07:35:13;;;;;;;;;;;;;;;-128.00;-1.00;-1.00;106502;1256;1002403;-65
2024/02/20 07:37:41;;;;;;;;;;;;;;;-128.00;-1.00;-1.00;106494;1255;1013575;-65
2024/02/20 07:40:09;;;;;;;;;;;;;;;-128.00;-1.00;-1.00;106508;1256;1002670;-64
2024/02/20 07:42:37;;;;;;;;;;;;;;;-128.00;-1.00;-1.00;106501;1256;1013705;-64
2024/02/20 07:45:06;;;;;;;;;;;;;;;-128.00;-1.00;-1.00;106515;1255;1003054;-65
2024/02/20 07:47:36;;;;;;;;;;;;;;;-128.00;-1.00;-1.00;106567;1255;1011587;-62
2024/02/20 07:50:04;;;;;;;;;;;;;;;-128.00;-1.00;-1.00;106542;1255;1013574;-65
2024/02/20 07:52:33;;;;;;;;;;;;;;;-128.00;-1.00;-1.00;106458;1257;1013055;-65
2024/02/20 07:55:00;;;;;;;;;;;;;;;-128.00;-1.00;-1.00;106476;1257;1002759;-64
2024/02/20 07:57:31;;;;;;;;;;;;;;;-128.00;-1.00;-1.00;106374;1256;1010158;-64
2024/02/20 07:59:59;;;;;;;;;;;;;;;-128.00;-1.00;-1.00;106731;1252;1010604;-66
2024/02/20 08:02:27;;;;;;;;;;;;;;;-128.00;-1.00;-1.00;106843;1253;1001963;-64
2024/02/20 08:04:54;;;;;;;;;;;;;;;-128.00;-1.00;-1.00;106753;1253;1003112;-66
2024/02/20 08:07:22;;;;;;;;;;;;;;;-128.00;-1.00;-1.00;106819;1253;1002129;-64
2024/02/20 08:09:55;;;;;;;;;;;;;;;-128.00;-1.00;-1.00;106801;1253;1002505;-67
2024/02/20 08:12:23;;;;;;;;;;;;;;;-128.00;-1.00;-1.00;106744;1253;1010801;-66
2024/02/20 08:14:51;;;;;;;;;;;;;;;-128.00;-1.00;-1.00;106757;1255;1013172;-67
2024/02/20 08:17:22;;;;;;;;;;;;;;;-128.00;-1.00;-1.00;106737;1253;1002522;-69
2024/02/20 08:19:49;;;;;;;;;;;;;;;-128.00;-1.00;-1.00;106816;1253;1012828;-65
2024/02/20 08:22:17;;;;;;;;;;;;;;;-128.00;-1.00;-1.00;106872;1252;1003204;-61
2024/02/20 08:24:45;;;;;;;;;;;;;;;-128.00;-1.00;-1.00;106557;1253;1002529;-61
2024/02/20 08:27:12;;;;;;;;;;;;;;;-128.00;-1.00;-1.00;106855;1252;1002204;-63
2024/02/20 08:29:40;;;;;;;;;;;;;;;-128.00;-1.00;-1.00;106874;1253;1002344;-66
2024/02/20 08:32:07;;;;;;;;;;;;;;;-128.00;-1.00;-1.00;106832;1252;1002169;-65
2024/02/20 08:34:35;;;;;;;;;;;;;;;-128.00;-1.00;-1.00;106853;1253;1002157;-65
2024/02/20 08:37:02;;;;;;;;;;;;;;;-128.00;-1.00;-1.00;106839;1252;1002555;-66
2024/02/20 08:39:30;;;;;;;;;;;;;;;-128.00;-1.00;-1.00;106896;1253;1002721;-66
2024/02/20 08:41:58;;;;;;;;;;;;;;;-128.00;-1.00;-1.00;106806;1253;1002299;-65
2024/02/20 08:44:26;;;;;;;;;;;;;;;-128.00;-1.00;-1.00;106883;1253;1002922;-63
2024/02/20 08:46:54;;;;;;;;;;;;;;;-128.00;-1.00;-1.00;106882;1252;1002819;-65
2024/02/20 08:49:22;;;;;;;;;;;;;;;-128.00;-1.00;-1.00;106907;1252;1011517;-64
2024/02/20 08:51:51;;;;;;;;;;;;;;;-128.00;-1.00;-1.00;106870;1252;1012836;-62
2024/02/20 08:54:19;;;;;;;;;;;;;;;-128.00;-1.00;-1.00;106863;1252;1002511;-63
2024/02/20 08:56:46;;;;;;;;;;;;;;;-128.00;-1.00;-1.00;106924;1252;1002634;-66
2024/02/20 08:59:14;;;;;;;;;;;;;;;-128.00;-1.00;-1.00;106960;1253;1002834;-64
2024/02/20 09:01:41;;;;;;;;;;;;;;;-128.00;-1.00;-1.00;106858;1253;1002403;-62
2024/02/20 09:04:11;;;;;;;;;;;;;;;-128.00;-1.00;-1.00;106944;1252;1002807;-65
2024/02/20 09:06:44;;;;;;;;;;;;;;;-128.00;-1.00;-1.00;106887;1252;1013145;-65
2024/02/20 09:09:11;;;;;;;;;;;;;;;-128.00;-1.00;-1.00;106917;1252;1012526;-63
2024/02/20 09:11:39;;;;;;;;;;;;;;;-128.00;-1.00;-1.00;106848;1252;1002339;-62
2024/02/20 09:14:06;;;;;;;;;;;;;;;-128.00;-1.00;-1.00;106897;1252;1002007;-64
2024/02/20 09:16:34;;;;;;;;;;;;;;;-128.00;-1.00;-1.00;106823;1253;1002041;-66
2024/02/20 09:19:02;;;;;;;;;;;;;;;-128.00;-1.00;-1.00;106838;1252;1002271;-62
2024/02/20 09:21:29;;;;;;;;;;;;;;;-128.00;-1.00;-1.00;106798;1253;1013903;-65
2024/02/20 09:23:57;;;;;;;;;;;;;;;-128.00;-1.00;-1.00;106882;1253;1002054;-67
2024/02/20 09:26:25;;;;;;;;;;;;;;;-128.00;-1.00;-1.00;106735;1254;1002292;-63
2024/02/20 09:28:53;;;;;;;;;;;;;;;-128.00;-1.00;-1.00;106628;1254;1013043;-65
2024/02/20 09:31:21;;;;;;;;;;;;;;;-128.00;-1.00;-1.00;106614;1254;1002125;-66
2024/02/20 09:33:48;;;;;;;;;;;;;;;-128.00;-1.00;-1.00;106619;1254;1002832;-67
2024/02/20 09:36:16;;;;;;;;;;;;;;;-128.00;-1.00;-1.00;106476;1254;1003055;-65
2024/02/20 09:38:44;;;;;;;;;;;;;;;-128.00;-1.00;-1.00;106602;1254;1002628;-66
2024/02/20 09:41:11;;;;;;;;;;;;;;;-128.00;-1.00;-1.00;106487;1254;1002516;-66
2024/02/20 09:43:39;;;;;;;;;;;;;;;-128.00;-1.00;-1.00;106568;1254;1002464;-65
2024/02/20 09:46:09;;;;;;;;;;;;;;;-128.00;-1.00;-1.00;106618;1254;1002025;-66
2024/02/20 09:48:37;;;;;;;;;;;;;;;-128.00;-1.00;-1.00;106711;1254;1009920;-67
2024/02/20 09:51:05;;;;;;;;;;;;;;;-128.00;-1.00;-1.00;106625;1254;1010482;-66
2024/02/20 09:53:34;;;;;;;;;;;;;;;-128.00;-1.00;-1.00;106619;1254;1002540;-65
2024/02/20 09:56:01;;;;;;;;;;;;;;;-128.00;-1.00;-1.00;106449;1256;1012384;-65
2024/02/20 09:58:29;;;;;;;;;;;;;;;-128.00;-1.00;-1.00;106786;1253;1002319;-66
2024/02/20 10:01:04;;;;;;;;;;;;;;;-128.00;-1.00;-1.00;106919;1252;1010918;-67
2024/02/20 10:03:32;;;;;;;;;;;;;;;-128.00;-1.00;-1.00;106901;1252;1010916;-65
2024/02/20 10:05:59;;;;;;;;;;;;;;;-128.00;-1.00;-1.00;106903;1253;1002680;-68
2024/02/20 10:08:28;;;;;;;;;;;;;;;-128.00;-1.00;-1.00;106906;1253;1002168;-69
2024/02/20 10:10:55;;;;;;;;;;;;;;;-128.00;-1.00;-1.00;106922;1252;1002819;-69
2024/02/20 10:13:23;;;;;;;;;;;;;;;-128.00;-1.00;-1.00;106851;1253;1002356;-65
2024/02/20 10:16:00;;;;;;;;;;;;;;;-128.00;-1.00;-1.00;106937;1253;1002770;-65
2024/02/20 10:18:28;;;;;;;;;;;;;;;-128.00;-1.00;-1.00;106852;1254;1012721;-63
2024/02/20 10:21:02;;;;;;;;;;;;;;;-128.00;-1.00;-1.00;106851;1254;1002635;-62
2024/02/20 10:23:30;;;;;;;;;;;;;;;-128.00;-1.00;-1.00;106759;1252;1013013;-64
2024/02/20 10:25:57;;;;;;;;;;;;;;;-128.00;-1.00;-1.00;106906;1252;1002891;-65
2024/02/20 10:28:25;;;;;;;;;;;;;;;-128.00;-1.00;-1.00;106680;1253;1002419;-65
2024/02/20 10:30:54;;;;;;;;;;;;;;;-128.00;-1.00;-1.00;106790;1252;1001953;-62
2024/02/20 10:33:22;;;;;;;;;;;;;;;-128.00;-1.00;-1.00;106796;1254;1012961;-64
2024/02/20 10:35:59;;;;;;;;;;;;;;;-128.00;-1.00;-1.00;106937;1252;1002547;-62
2024/02/20 10:38:27;;;;;;;;;;;;;;;-128.00;-1.00;-1.00;106917;1252;1010031;-63
2024/02/20 10:40:55;;;;;;;;;;;;;;;-128.00;-1.00;-1.00;106909;1253;1002411;-65
2024/02/20 10:43:22;;;;;;;;;;;;;;;-128.00;-1.00;-1.00;106899;1252;1002676;-64
2024/02/20 10:45:51;;;;;;;;;;;;;;;-128.00;-1.00;-1.00;106869;1253;1002506;-64
2024/02/20 10:48:20;;;;;;;;;;;;;;;-128.00;-1.00;-1.00;106869;1253;1013034;-67
2024/02/20 10:50:48;;;;;;;;;;;;;;;-128.00;-1.00;-1.00;106502;1252;1009801;-65
2024/02/20 10:53:15;;;;;;;;;;;;;;;-128.00;-1.00;-1.00;106812;1252;1002492;-64
2024/02/20 10:55:43;;;;;;;;;;;;;;;-128.00;-1.00;-1.00;106884;1252;1002798;-65
2024/02/20 10:58:16;;;;;;;;;;;;;;;-128.00;-1.00;-1.00;106930;1252;1002429;-66
2024/02/20 11:00:46;;;;;;;;;;;;;;;-128.00;-1.00;-1.00;106867;1253;1012980;-66
2024/02/20 11:03:14;;;;;;;;;;;;;;;-128.00;-1.00;-1.00;106872;1253;1010598;-66
2024/02/20 11:05:41;;;;;;;;;;;;;;;-128.00;-1.00;-1.00;106859;1253;1002497;-63
2024/02/20 11:08:09;;;;;;;;;;;;;;;-128.00;-1.00;-1.00;106806;1254;1002420;-65
2024/02/20 11:10:39;;;;;;;;;;;;;;;-128.00;-1.00;-1.00;106897;1253;1012393;-66
2024/02/20 11:13:14;;;;;;;;;;;;;;;-128.00;-1.00;-1.00;106565;1253;1013539;-67
2024/02/20 11:15:43;;;;;;;;;;;;;;;-128.00;-1.00;-1.00;106660;1254;1010321;-66
2024/02/20 11:18:14;;;;;;;;;;;;;;;-128.00;-1.00;-1.00;106646;1254;1002274;-68
2024/02/20 11:20:43;;;;;;;;;;;;;;;-128.00;-1.00;-1.00;106586;1256;1013262;-69
2024/02/20 11:23:12;;;;;;;;;;;;;;;-128.00;-1.00;-1.00;106581;1255;1013256;-69
2024/02/20 11:25:41;;;;;;;;;;;;;;;-128.00;-1.00;-1.00;106642;1256;1002404;-69
2024/02/20 11:28:15;;;;;;;;;;;;;;;-128.00;-1.00;-1.00;106502;1255;1010106;-67
2024/02/20 11:30:47;;;;;;;;;;;;;;;-128.00;-1.00;-1.00;106608;1255;1010262;-69
2024/02/20 11:33:15;;;;;;;;;;;;;;;-128.00;-1.00;-1.00;106592;1257;1012938;-69
2024/02/20 11:35:45;;;;;;;;;;;;;;;-128.00;-1.00;-1.00;106475;1257;1013085;-69
2024/02/20 11:38:16;;;;;;;;;;;;;;;-128.00;-1.00;-1.00;106590;1255;1012939;-70
2024/02/20 11:40:44;;;;;;;;;;;;;;;-128.00;-1.00;-1.00;106504;1255;1010326;-69
2024/02/20 11:43:12;;;;;;;;;;;;;;;-128.00;-1.00;-1.00;106618;1255;1002305;-69
2024/02/20 11:45:40;;;;;;;;;;;;;;;-128.00;-1.00;-1.00;106574;1256;1002151;-70
2024/02/20 11:48:08;;;;;;;;;;;;;;;-128.00;-1.00;-1.00;106431;1259;1002697;-71
2024/02/20 11:50:40;;;;;;;;;;;;;;;-128.00;-1.00;-1.00;106787;1253;1013240;-70
2024/02/20 11:53:10;;;;;;;;;;;;;;;-128.00;-1.00;-1.00;106746;1253;1010577;-70
2024/02/20 11:55:46;;;;;;;;;;;;;;;-128.00;-1.00;-1.00;106798;1253;1011162;-70
2024/02/20 11:58:14;;;;;;;;;;;;;;;-128.00;-1.00;-1.00;106732;1253;1014301;-69
2024/02/20 12:00:42;;;;;;;;;;;;;;;-128.00;-1.00;-1.00;106522;1253;1002568;-69
2024/02/20 12:03:09;;;;;;;;;;;;;;;-128.00;-1.00;-1.00;106812;1253;1002183;-69
2024/02/20 12:05:40;;;;;;;;;;;;;;;-128.00;-1.00;-1.00;106745;1253;1002605;-69
2024/02/20 12:08:16;;;;;;;;;;;;;;;-128.00;-1.00;-1.00;106768;1253;1010706;-70
2024/02/20 12:10:44;;;;;;;;;;;;;;;-128.00;-1.00;-1.00;106741;1253;1013431;-69
2024/02/20 12:13:15;;;;;;;;;;;;;;;-128.00;-1.00;-1.00;106739;1253;1002370;-67
2024/02/20 12:15:44;;;;;;;;;;;;;;;-128.00;-1.00;-1.00;106746;1253;1013464;-71
2024/02/20 12:18:11;;;;;;;;;;;;;;;-128.00;-1.00;-1.00;106680;1253;1009749;-69
2024/02/20 12:20:39;;;;;;;;;;;;;;;-128.00;-1.00;-1.00;106805;1254;1002348;-69
2024/02/20 12:23:06;;;;;;;;;;;;;;;-128.00;-1.00;-1.00;106762;1254;1002270;-69
2024/02/20 12:25:34;;;;;;;;;;;;;;;-128.00;-1.00;-1.00;106536;1254;1002522;-69
2024/02/20 12:28:02;;;;;;;;;;;;;;;-128.00;-1.00;-1.00;106595;1255;1003007;-69
2024/02/20 12:30:29;;;;;;;;;;;;;;;-128.00;-1.00;-1.00;106665;1254;1002166;-69
2024/02/20 12:32:57;;;;;;;;;;;;;;;-128.00;-1.00;-1.00;106498;1254;1002917;-69